createdAt,value
2023-04-19T00:00:36.017Z,6.03
2023-04-19T00:03:03.672Z,5.45
2023-04-19T00:05:33.730Z,5.35
2023-04-19T00:08:04.683Z,5.68
2023-04-19T00:10:36.304Z,4.78
2023-04-19T00:13:05.932Z,6.47
2023-04-19T00:15:35.296Z,5.28
2023-04-19T00:18:03.942Z,5.57
2023-04-19T00:20:34.810Z,6.05
2023-04-19T00:23:04.929Z,5.88
2023-04-19T00:25:35.739Z,6.05
2023-04-19T00:28:06.679Z,5.50
2023-04-19T00:30:40.601Z,6.25
2023-04-19T00:33:13.274Z,6.53
2023-04-19T00:35:42.449Z,6.13
2023-04-19T00:38:09.703Z,5.95
2023-04-19T00:40:39.827Z,5.93
2023-04-19T00:43:07.185Z,6.22
2023-04-19T00:45:37.189Z,6.40
2023-04-19T00:48:09.392Z,6.97
2023-04-19T00:50:39.329Z,5.72
2023-04-19T00:53:09.302Z,6.72
2023-04-19T00:55:39.592Z,6.32
2023-04-19T00:58:11.897Z,7.20
2023-04-19T01:00:42.508Z,6.80
2023-04-19T01:03:23.689Z,6.28
2023-04-19T01:05:54.094Z,6.15
2023-04-19T01:08:30.270Z,6.25
2023-04-19T01:11:00.360Z,7.38
2023-04-19T01:13:28.285Z,6.50
2023-04-19T01:16:01.460Z,6.53
2023-04-19T01:18:40.267Z,6.15
2023-04-19T01:21:18.337Z,6.93
2023-04-19T01:23:56.334Z,5.72
2023-04-19T01:26:31.802Z,6.43
2023-04-19T01:29:02.161Z,6.45
2023-04-19T01:31:37.882Z,6.30
2023-04-19T01:34:13.501Z,6.60
2023-04-19T01:36:44.185Z,6.53
2023-04-19T01:39:28.778Z,5.50
2023-04-19T01:42:01.497Z,5.78
2023-04-19T01:44:34.978Z,6.30
2023-04-19T01:47:13.434Z,5.28
2023-04-19T01:49:45.962Z,5.30
2023-04-19T01:52:29.042Z,4.77
2023-04-19T01:55:01.374Z,5.63
2023-04-19T01:57:35.331Z,5.50
2023-04-19T02:00:07.992Z,4.60
2023-04-19T02:02:44.723Z,5.95
2023-04-19T02:05:16.586Z,5.75
2023-04-19T02:07:47.205Z,5.90
2023-04-19T02:10:17.746Z,6.03
2023-04-19T02:12:45.735Z,5.70
2023-04-19T02:15:15.567Z,5.97
2023-04-19T02:17:46.172Z,6.03
2023-04-19T02:20:15.716Z,5.85
2023-04-19T02:22:46.654Z,5.35
2023-04-19T02:25:17.080Z,5.65
2023-04-19T02:27:48.944Z,6.20
2023-04-19T02:30:18.287Z,5.75
2023-04-19T02:32:50.665Z,5.65
2023-04-19T02:35:21.382Z,6.15
2023-04-19T02:37:48.813Z,6.38
2023-04-19T02:40:23.175Z,5.72
2023-04-19T02:42:51.404Z,6.90
2023-04-19T02:45:22.657Z,6.75
2023-04-19T02:47:55.585Z,7.63
2023-04-19T02:50:24.069Z,6.45
2023-04-19T02:52:52.092Z,5.72
2023-04-19T02:55:21.184Z,5.95
2023-04-19T02:57:56.617Z,6.45
2023-04-19T03:00:27.248Z,6.80
2023-04-19T03:03:08.350Z,7.15
2023-04-19T03:05:41.190Z,6.45
2023-04-19T03:08:11.081Z,7.40
2023-04-19T03:10:38.881Z,6.57
2023-04-19T03:13:09.609Z,7.00
2023-04-19T03:15:41.249Z,6.75
2023-04-19T03:18:11.868Z,7.10
2023-04-19T03:20:43.748Z,6.68
2023-04-19T03:23:11.302Z,6.03
2023-04-19T03:25:41.600Z,6.75
2023-04-19T03:28:29.124Z,7.65
2023-04-19T03:31:13.710Z,6.32
2023-04-19T03:33:41.993Z,7.60
2023-04-19T03:36:11.260Z,7.05
2023-04-19T03:38:41.115Z,5.88
2023-04-19T03:41:23.951Z,6.57
2023-04-19T03:44:07.264Z,7.63
2023-04-19T03:46:44.688Z,6.95
2023-04-19T03:49:13.031Z,7.05
2023-04-19T03:51:43.326Z,6.10
2023-04-19T03:54:19.057Z,6.00
2023-04-19T03:56:57.222Z,6.47
2023-04-19T03:59:27.097Z,5.97
2023-04-19T04:01:58.133Z,5.85
2023-04-19T04:04:26.067Z,6.25
2023-04-19T04:06:57.473Z,5.28
2023-04-19T04:09:35.616Z,5.57
2023-04-19T04:12:06.270Z,6.15
2023-04-19T04:14:34.690Z,4.65
2023-04-19T04:17:11.735Z,5.10
2023-04-19T04:19:39.241Z,5.18
2023-04-19T04:22:10.464Z,5.38
2023-04-19T04:24:42.188Z,4.63
2023-04-19T04:27:21.813Z,5.57
2023-04-19T04:29:55.521Z,5.07
2023-04-19T04:32:36.026Z,5.10
2023-04-19T04:35:09.953Z,4.93
2023-04-19T04:37:50.228Z,5.28
2023-04-19T04:40:24.165Z,6.40
2023-04-19T04:42:54.421Z,5.63
2023-04-19T04:45:25.681Z,6.03
2023-04-19T04:47:58.452Z,5.35
2023-04-19T04:50:32.432Z,5.07
2023-04-19T04:53:02.112Z,5.38
2023-04-19T04:55:33.222Z,5.65
2023-04-19T04:58:02.796Z,4.97
2023-04-19T05:00:42.334Z,5.50
2023-04-19T05:03:25.424Z,5.15
2023-04-19T05:06:12.265Z,5.57
2023-04-19T05:08:48.907Z,5.35
2023-04-19T05:11:32.489Z,5.13
2023-04-19T05:14:21.335Z,5.32
2023-04-19T05:16:54.518Z,5.00
2023-04-19T05:19:28.356Z,6.28
2023-04-19T05:22:04.806Z,6.07
2023-04-19T05:24:57.727Z,5.10
2023-04-19T05:27:40.006Z,5.20
2023-04-19T05:30:11.800Z,5.90
2023-04-19T05:32:55.317Z,6.65
2023-04-19T05:35:32.234Z,6.18
2023-04-19T05:38:19.704Z,6.13
2023-04-19T05:41:06.866Z,6.03
2023-04-19T05:44:02.739Z,5.97
2023-04-19T05:46:51.102Z,5.63
2023-04-19T05:49:33.967Z,5.65
2023-04-19T05:52:34.979Z,6.03
2023-04-19T05:55:29.709Z,6.07
2023-04-19T05:58:23.453Z,6.80
2023-04-19T06:01:33.537Z,6.40
2023-04-19T06:04:13.414Z,6.03
2023-04-19T06:06:55.994Z,6.82
2023-04-19T06:09:35.149Z,5.88
2023-04-19T06:12:31.555Z,6.18
2023-04-19T06:15:16.338Z,6.38
2023-04-19T06:21:04.409Z,7.40
2023-04-19T06:23:50.252Z,5.93
2023-04-19T06:26:43.740Z,7.15
2023-04-19T06:29:33.314Z,6.30
2023-04-19T06:32:11.808Z,12.38
2023-04-19T06:35:01.910Z,8.85
2023-04-19T06:37:36.952Z,7.40
2023-04-19T06:40:22.857Z,7.80
2023-04-19T06:43:15.103Z,6.50
2023-04-19T06:45:49.158Z,6.75
2023-04-19T06:48:48.835Z,7.00
2023-04-19T06:51:43.750Z,6.70
2023-04-19T06:54:46.350Z,7.00
2023-04-19T06:57:34.755Z,7.18
2023-04-19T07:00:30.475Z,6.55
2023-04-19T07:03:00.714Z,7.22
2023-04-19T07:05:43.771Z,6.95
2023-04-19T07:11:30.077Z,6.90
2023-04-19T07:14:26.574Z,6.82
2023-04-19T07:17:18.345Z,6.50
2023-04-19T07:20:18.770Z,5.95
2023-04-19T07:23:17.537Z,6.80
2023-04-19T07:25:54.846Z,6.78
2023-04-19T07:28:41.607Z,6.45
2023-04-19T07:31:20.353Z,6.28
2023-04-19T07:34:04.603Z,6.20
2023-04-19T07:36:52.334Z,5.80
2023-04-19T07:39:37.461Z,6.53
2023-04-19T07:42:19.622Z,5.88
2023-04-19T07:45:10.163Z,6.97
2023-04-19T07:47:50.299Z,7.70
2023-04-19T07:50:42.652Z,9.25
2023-04-19T07:53:26.619Z,8.80
2023-04-19T07:56:07.987Z,8.93
2023-04-19T07:59:08.570Z,8.07
2023-04-19T08:04:38.166Z,8.65
2023-04-19T08:07:16.767Z,8.73
2023-04-19T08:10:00.208Z,9.55
2023-04-19T08:12:40.618Z,10.10
2023-04-19T08:18:52.681Z,13.63
2023-04-19T08:21:41.282Z,10.27
2023-04-19T08:24:19.711Z,10.15
2023-04-19T08:27:00.237Z,9.50
2023-04-19T08:29:47.628Z,10.13
2023-04-19T08:32:31.258Z,8.57
2023-04-19T08:38:05.208Z,6.25
2023-04-19T08:40:59.487Z,6.15
2023-04-19T08:43:34.551Z,6.63
2023-04-19T08:46:13.566Z,5.45
2023-04-19T08:48:48.658Z,4.63
2023-04-19T08:51:29.864Z,5.45
2023-04-19T08:54:20.338Z,5.13
2023-04-19T08:57:03.575Z,4.70
2023-04-19T08:59:37.810Z,4.28
2023-04-19T09:02:59.529Z,3.53
2023-04-19T09:05:40.992Z,3.03
2023-04-19T09:08:34.732Z,3.42
2023-04-19T09:11:18.261Z,3.40
2023-04-19T09:14:28.311Z,2.35
2023-04-19T09:17:21.497Z,3.00
2023-04-19T09:19:59.407Z,3.00
2023-04-19T09:22:49.520Z,2.70
2023-04-19T09:28:18.042Z,2.65
2023-04-19T09:31:02.355Z,2.63
2023-04-19T09:33:42.076Z,2.10
2023-04-19T09:36:33.964Z,2.70
2023-04-19T09:39:39.300Z,3.03
2023-04-19T09:42:47.446Z,3.35
2023-04-19T09:45:54.552Z,3.05
2023-04-19T09:48:40.207Z,4.03
2023-04-19T09:51:54.914Z,3.58
2023-04-19T09:54:46.295Z,2.50
2023-04-19T09:57:49.811Z,3.50
2023-04-19T10:00:22.529Z,3.13
2023-04-19T10:03:02.716Z,3.17
2023-04-19T10:05:52.969Z,3.25
2023-04-19T10:08:35.705Z,2.83
2023-04-19T10:11:24.842Z,2.83
2023-04-19T10:14:30.061Z,2.10
2023-04-19T10:17:16.720Z,2.10
2023-04-19T10:20:07.581Z,2.83
2023-04-19T10:22:49.026Z,3.17
2023-04-19T10:25:46.049Z,3.17
2023-04-19T10:28:24.834Z,2.70
2023-04-19T10:31:05.591Z,2.70
2023-04-19T10:33:46.808Z,2.95
2023-04-19T10:36:33.935Z,2.00
2023-04-19T10:40:05.645Z,2.28
2023-04-19T10:43:17.933Z,2.08
2023-04-19T10:45:53.886Z,2.00
2023-04-19T10:49:15.408Z,2.50
2023-04-19T10:51:58.290Z,2.25
2023-04-19T10:54:56.259Z,2.25
2023-04-19T10:58:06.697Z,1.80
2023-04-19T11:00:44.392Z,2.03
2023-04-19T11:03:55.368Z,2.28
2023-04-19T11:07:04.324Z,1.70
2023-04-19T11:09:46.206Z,2.13
2023-04-19T11:12:19.399Z,2.08
2023-04-19T11:14:57.931Z,2.20
2023-04-19T11:17:57.841Z,2.05
2023-04-19T11:20:45.585Z,3.53
2023-04-19T11:23:30.607Z,2.55
2023-04-19T11:26:40.839Z,3.40
2023-04-19T11:29:26.628Z,3.60
2023-04-19T11:35:10.938Z,3.28
2023-04-19T11:37:50.001Z,3.83
2023-04-19T11:40:48.916Z,4.57
2023-04-19T11:43:47.037Z,5.30
2023-04-19T11:46:34.983Z,4.50
2023-04-19T11:49:34.499Z,4.40
2023-04-19T11:52:42.151Z,4.05
2023-04-19T11:55:28.573Z,4.85
2023-04-19T11:57:56.861Z,4.32
2023-04-19T12:01:07.322Z,4.38
2023-04-19T12:04:10.571Z,4.28
2023-04-19T12:07:01.132Z,3.90
2023-04-19T12:09:52.313Z,3.83
2023-04-19T12:15:49.494Z,4.40
2023-04-19T12:18:55.325Z,3.80
2023-04-19T12:21:34.013Z,4.20
2023-04-19T12:24:12.832Z,3.90
2023-04-19T12:27:09.179Z,4.53
2023-04-19T12:29:49.131Z,3.88
2023-04-19T12:32:51.752Z,3.30
2023-04-19T12:35:32.242Z,3.08
2023-04-19T12:38:29.683Z,2.10
2023-04-19T12:41:25.588Z,3.00
2023-04-19T12:43:58.163Z,2.80
2023-04-19T12:46:43.180Z,2.20
2023-04-19T12:49:45.686Z,2.47
2023-04-19T12:52:19.302Z,3.00
2023-04-19T12:54:54.546Z,2.85
2023-04-19T12:57:43.717Z,2.17
2023-04-19T13:00:20.447Z,1.95
2023-04-19T13:02:57.241Z,1.88
2023-04-19T13:05:32.236Z,2.33
2023-04-19T13:08:12.085Z,2.05
2023-04-19T13:11:07.762Z,2.28
2023-04-19T13:13:46.810Z,1.95
2023-04-19T13:16:23.806Z,1.83
2023-04-19T13:19:37.860Z,2.10
2023-04-19T13:22:11.175Z,2.10
2023-04-19T13:24:41.894Z,1.80
2023-04-19T13:27:22.353Z,2.60
2023-04-19T13:29:56.958Z,2.58
2023-04-19T13:32:37.073Z,2.38
2023-04-19T13:35:24.910Z,2.47
2023-04-19T13:38:09.886Z,1.80
2023-04-19T13:40:55.788Z,1.85
2023-04-19T13:43:36.344Z,1.95
2023-04-19T13:46:08.052Z,2.30
2023-04-19T13:48:51.888Z,2.45
2023-04-19T13:51:42.778Z,2.65
2023-04-19T13:54:28.946Z,1.88
2023-04-19T13:57:08.604Z,2.33
2023-04-19T13:59:50.355Z,1.98
2023-04-19T14:02:27.666Z,1.80
2023-04-19T14:04:58.148Z,1.90
2023-04-19T14:07:40.672Z,2.08
2023-04-19T14:10:12.745Z,2.28
2023-04-19T14:12:40.078Z,2.17
2023-04-19T14:15:28.089Z,2.42
2023-04-19T14:18:11.383Z,2.45
2023-04-19T14:20:53.914Z,2.08
2023-04-19T14:23:36.734Z,3.22
2023-04-19T14:26:22.670Z,2.47
2023-04-19T14:28:55.403Z,2.97
2023-04-19T14:32:13.486Z,1.97
2023-04-19T14:34:54.736Z,2.30
2023-04-19T14:37:32.824Z,2.35
2023-04-19T14:40:17.657Z,2.45
2023-04-19T14:43:22.613Z,2.13
2023-04-19T14:46:09.351Z,2.30
2023-04-19T14:48:48.886Z,2.13
2023-04-19T14:51:49.536Z,1.80
2023-04-19T14:55:01.096Z,3.10
2023-04-19T14:57:57.929Z,2.63
2023-04-19T15:00:34.077Z,2.60
2023-04-19T15:03:07.987Z,2.30
2023-04-19T15:05:49.507Z,2.42
2023-04-19T15:08:30.223Z,2.13
2023-04-19T15:11:13.223Z,2.05
2023-04-19T15:13:44.457Z,2.33
2023-04-19T15:16:20.443Z,1.98
2023-04-19T15:18:47.877Z,2.20
2023-04-19T15:21:17.937Z,2.08
2023-04-19T15:26:40.376Z,2.13
2023-04-19T15:29:16.861Z,2.20
2023-04-19T15:31:55.719Z,2.25
2023-04-19T15:34:53.136Z,2.42
2023-04-19T15:37:33.824Z,2.50
2023-04-19T15:40:13.258Z,1.97
2023-04-19T15:42:49.183Z,2.03
2023-04-19T15:45:22.872Z,2.38
2023-04-19T15:50:33.463Z,2.30
2023-04-19T15:53:08.141Z,2.80
2023-04-19T15:55:50.504Z,2.70
2023-04-19T15:58:23.456Z,2.05
2023-04-19T16:00:56.316Z,2.10
2023-04-19T16:03:27.142Z,1.97
2023-04-19T16:05:59.694Z,1.85
2023-04-19T16:08:31.933Z,2.17
2023-04-19T16:11:09.828Z,2.42
2023-04-19T16:13:45.529Z,2.22
2023-04-19T16:16:20.943Z,2.30
2023-04-19T16:18:51.594Z,2.55
2023-04-19T16:21:29.789Z,2.60
2023-04-19T16:24:06.553Z,2.20
2023-04-19T16:26:34.311Z,2.80
2023-04-19T16:29:04.603Z,2.20
2023-04-19T16:31:43.992Z,2.53
2023-04-19T16:34:21.455Z,2.55
2023-04-19T16:36:49.371Z,2.33
2023-04-19T16:39:26.459Z,2.72
2023-04-19T16:41:54.017Z,2.15
2023-04-19T16:44:30.243Z,2.22
2023-04-19T16:47:34.731Z,2.45
2023-04-19T16:50:29.730Z,2.72
2023-04-19T16:53:54.926Z,2.67
2023-04-19T16:56:59.161Z,3.00
2023-04-19T16:59:50.235Z,3.72
2023-04-19T17:02:31.246Z,2.58
2023-04-19T17:05:35.089Z,2.80
2023-04-19T17:08:22.424Z,3.67
2023-04-19T17:10:57.006Z,3.50
2023-04-19T17:13:40.178Z,3.15
2023-04-19T17:16:34.636Z,3.58
2023-04-19T17:19:27.819Z,3.35
2023-04-19T17:22:56.233Z,3.63
2023-04-19T17:25:39.809Z,3.67
2023-04-19T17:28:17.645Z,3.72
2023-04-19T17:30:55.636Z,3.72
2023-04-19T17:33:58.361Z,3.55
2023-04-19T17:36:35.193Z,3.97
2023-04-19T17:39:18.392Z,3.38
2023-04-19T17:42:03.047Z,3.53
2023-04-19T17:44:56.355Z,3.28
2023-04-19T17:47:37.651Z,3.27
2023-04-19T17:50:35.054Z,2.95
2023-04-19T17:53:15.684Z,2.88
2023-04-19T17:55:57.457Z,3.33
2023-04-19T17:58:29.137Z,2.47
2023-04-19T18:01:01.799Z,2.53
2023-04-19T18:03:38.003Z,3.53
2023-04-19T18:06:26.487Z,3.60
2023-04-19T18:09:01.454Z,3.20
2023-04-19T18:12:17.458Z,3.40
2023-04-19T18:15:09.138Z,3.25
2023-04-19T18:18:01.881Z,3.28
2023-04-19T18:20:44.682Z,3.50
2023-04-19T18:23:26.386Z,3.92
2023-04-19T18:26:12.278Z,3.28
2023-04-19T18:29:00.876Z,3.47
2023-04-19T18:31:34.092Z,3.53
2023-04-19T18:34:04.122Z,4.18
2023-04-19T18:36:41.713Z,2.88
2023-04-19T18:39:13.489Z,2.63
2023-04-19T18:41:53.067Z,3.53
2023-04-19T18:44:44.065Z,3.78
2023-04-19T18:47:32.211Z,2.97
2023-04-19T18:50:25.424Z,2.92
2023-04-19T18:53:09.385Z,2.90
2023-04-19T18:58:36.515Z,3.13
2023-04-19T19:01:30.610Z,2.97
2023-04-19T19:07:17.987Z,2.67
2023-04-19T19:10:21.817Z,3.22
2023-04-19T19:13:23.014Z,3.13
2023-04-19T19:16:12.109Z,2.63
2023-04-19T19:19:01.692Z,3.40
2023-04-19T19:21:52.343Z,3.67
2023-04-19T19:24:57.661Z,3.85
2023-04-19T19:27:37.872Z,3.85
2023-04-19T19:30:46.873Z,3.80
2023-04-19T19:33:32.991Z,3.70
2023-04-19T19:36:20.166Z,3.03
2023-04-19T19:39:16.036Z,2.65
2023-04-19T19:42:05.236Z,3.20
2023-04-19T19:45:02.597Z,3.97
2023-04-19T19:51:01.072Z,4.22
2023-04-19T19:53:18.861Z,3.97
2023-04-19T19:56:00.506Z,5.38
2023-04-19T19:58:49.759Z,3.78
2023-04-19T20:01:32.457Z,3.83
2023-04-19T20:04:08.007Z,4.05
2023-04-19T20:09:47.143Z,3.10
2023-04-19T20:12:33.098Z,2.67
2023-04-19T20:15:19.842Z,2.78
2023-04-19T20:18:06.595Z,3.35
2023-04-19T20:23:30.366Z,3.13
2023-04-19T20:26:16.351Z,3.00
2023-04-19T20:29:01.307Z,3.47
2023-04-19T20:31:49.410Z,3.28
2023-04-19T20:34:23.966Z,3.63
2023-04-19T20:39:58.706Z,3.38
2023-04-19T20:42:40.034Z,3.78
2023-04-19T20:45:15.958Z,3.47
2023-04-19T20:47:55.913Z,3.83
2023-04-19T20:50:41.572Z,4.57
2023-04-19T20:53:20.832Z,3.50
2023-04-19T20:56:12.517Z,4.03
2023-04-19T20:58:48.302Z,4.28
2023-04-19T21:01:23.115Z,4.00
2023-04-19T21:06:49.236Z,3.97
2023-04-19T21:09:43.891Z,4.38
2023-04-19T21:12:31.758Z,4.40
2023-04-19T21:15:20.122Z,4.38
2023-04-19T21:18:08.193Z,4.18
2023-04-19T21:20:55.569Z,4.95
2023-04-19T21:23:39.258Z,5.13
2023-04-19T21:26:16.720Z,4.20
2023-04-19T21:29:06.466Z,4.43
2023-04-19T21:31:50.792Z,4.07
2023-04-19T21:34:38.570Z,5.40
2023-04-19T21:37:23.016Z,4.95
2023-04-19T21:40:09.765Z,4.85
2023-04-19T21:42:48.858Z,5.15
2023-04-19T21:45:49.632Z,4.97
2023-04-19T21:48:22.944Z,4.88
2023-04-19T21:51:06.668Z,5.15
2023-04-19T21:53:44.998Z,4.57
2023-04-19T21:56:20.105Z,5.32
2023-04-19T21:58:58.058Z,4.65
2023-04-19T22:01:43.202Z,4.30
2023-04-19T22:04:36.979Z,4.95
2023-04-19T22:07:30.495Z,4.72
2023-04-19T22:10:14.171Z,4.75
2023-04-19T22:13:06.335Z,5.53
2023-04-19T22:15:42.988Z,5.45
2023-04-19T22:18:23.727Z,5.13
2023-04-19T22:21:16.998Z,5.65
2023-04-19T22:23:52.644Z,5.03
2023-04-19T22:26:29.732Z,5.45
2023-04-19T22:28:59.238Z,4.93
2023-04-19T22:31:31.750Z,5.47
2023-04-19T22:33:58.996Z,5.07
2023-04-19T22:36:29.567Z,4.95
2023-04-19T22:39:02.778Z,5.15
2023-04-19T22:41:29.953Z,4.90
2023-04-19T22:44:01.590Z,4.93
2023-04-19T22:46:31.466Z,4.28
2023-04-19T22:49:03.463Z,5.30
2023-04-19T22:51:31.132Z,4.53
2023-04-19T22:53:59.604Z,5.22
2023-04-19T22:56:29.215Z,4.88
2023-04-19T22:58:57.893Z,5.65
2023-04-19T23:01:31.530Z,4.78
2023-04-19T23:04:09.098Z,4.65
2023-04-19T23:06:37.122Z,4.80
2023-04-19T23:09:04.527Z,4.65
2023-04-19T23:11:33.740Z,5.05
2023-04-19T23:14:04.733Z,3.95
2023-04-19T23:16:33.562Z,4.05
2023-04-19T23:19:02.910Z,4.50
2023-04-19T23:21:32.664Z,4.28
2023-04-19T23:24:02.691Z,4.10
2023-04-19T23:26:32.096Z,4.75
2023-04-19T23:28:59.644Z,3.72
2023-04-19T23:31:30.002Z,4.43
2023-04-19T23:34:00.236Z,3.90
2023-04-19T23:36:34.204Z,5.57
2023-04-19T23:39:13.087Z,4.60
2023-04-19T23:41:40.385Z,4.20
2023-04-19T23:44:07.713Z,3.97
2023-04-19T23:46:44.442Z,4.40
2023-04-19T23:49:12.402Z,4.65
2023-04-19T23:51:44.445Z,3.88
2023-04-19T23:54:14.889Z,4.63
2023-04-19T23:56:45.617Z,4.82
